createdAt,value
2017-03-12T00:00:28.362Z,941.6
2017-03-12T00:01:36.453Z,941.5
2017-03-12T00:02:44.536Z,941.5
2017-03-12T00:03:52.747Z,941.5
2017-03-12T00:05:00.711Z,941.5
2017-03-12T00:06:08.859Z,941.5
2017-03-12T00:07:16.892Z,941.4
2017-03-12T00:08:24.989Z,941.4
2017-03-12T00:09:33.146Z,941.4
2017-03-12T00:10:41.182Z,941.4
2017-03-12T00:11:49.273Z,941.4
2017-03-12T00:12:57.363Z,941.4
2017-03-12T00:14:05.450Z,941.4
2017-03-12T00:15:13.633Z,941.4
2017-03-12T00:16:21.626Z,941.4
2017-03-12T00:17:29.710Z,941.4
2017-03-12T00:18:37.793Z,941.4
2017-03-12T00:19:45.883Z,941.4
2017-03-12T00:20:54.034Z,941.4
2017-03-12T00:22:02.568Z,941.4
2017-03-12T00:23:10.154Z,941.4
2017-03-12T00:24:18.239Z,941.4
2017-03-12T00:25:26.387Z,941.4
2017-03-12T00:26:34.509Z,941.4
2017-03-12T00:27:42.502Z,941.4
2017-03-12T00:28:50.590Z,941.4
2017-03-12T00:29:58.682Z,941.4
2017-03-12T00:31:06.762Z,941.3
2017-03-12T00:32:15.366Z,941.4
2017-03-12T00:33:22.943Z,941.4
2017-03-12T00:34:31.030Z,941.3
2017-03-12T00:35:39.110Z,941.4
2017-03-12T00:36:47.257Z,941.3
2017-03-12T00:37:55.350Z,941.3
2017-03-12T00:39:03.370Z,941.3
2017-03-12T00:40:11.465Z,941.3
2017-03-12T00:41:19.724Z,941.3
2017-03-12T00:42:27.635Z,941.3
2017-03-12T00:43:36.227Z,941.3
2017-03-12T00:44:43.813Z,941.2
2017-03-12T00:45:51.901Z,941.3
2017-03-12T00:46:59.987Z,941.3
2017-03-12T00:48:08.085Z,941.3
2017-03-12T00:49:16.216Z,941.3
2017-03-12T00:50:24.246Z,941.3
2017-03-12T00:51:32.333Z,941.3
2017-03-12T00:52:40.549Z,941.3
2017-03-12T00:53:48.572Z,941.3
2017-03-12T00:54:56.655Z,941.3
2017-03-12T00:56:04.689Z,941.3
2017-03-12T00:57:12.780Z,941.3
2017-03-12T00:58:20.870Z,941.3
2017-03-12T00:59:28.952Z,941.3
2017-03-12T01:00:37.103Z,941.2
2017-03-12T01:01:45.137Z,941.2
2017-03-12T01:02:53.289Z,941.2
2017-03-12T01:04:01.360Z,941.2
2017-03-12T01:05:09.394Z,941.2
2017-03-12T01:06:17.539Z,941.2
2017-03-12T01:07:25.765Z,941.2
2017-03-12T01:08:33.851Z,941.2
2017-03-12T01:09:42.253Z,941.2
2017-03-12T01:10:49.836Z,941.1
2017-03-12T01:11:57.981Z,941.1
2017-03-12T01:13:06.010Z,941.1
2017-03-12T01:14:14.113Z,941.1
2017-03-12T01:15:22.181Z,941.1
2017-03-12T01:16:30.268Z,941.1
2017-03-12T01:17:38.410Z,941.1
2017-03-12T01:18:46.443Z,941.1
2017-03-12T01:19:54.536Z,941.1
2017-03-12T01:21:02.625Z,941.1
2017-03-12T01:22:10.714Z,941.1
2017-03-12T01:23:18.875Z,941.1
2017-03-12T01:24:26.905Z,941.1
2017-03-12T01:25:35.107Z,941.0
2017-03-12T01:26:43.074Z,941.0
2017-03-12T01:27:51.165Z,941.0
2017-03-12T01:28:59.309Z,941.0
2017-03-12T01:30:07.336Z,941.0
2017-03-12T01:31:15.437Z,941.0
2017-03-12T01:32:23.523Z,940.9
2017-03-12T01:33:31.613Z,941.0
2017-03-12T01:34:39.757Z,940.9
2017-03-12T01:35:47.794Z,940.9
2017-03-12T01:36:55.887Z,940.8
2017-03-12T01:38:03.973Z,940.8
2017-03-12T01:39:12.066Z,940.8
2017-03-12T01:40:20.364Z,940.8
2017-03-12T01:41:28.741Z,940.8
2017-03-12T01:42:36.325Z,940.8
2017-03-12T01:43:44.414Z,940.7
2017-03-12T01:44:52.498Z,940.7
2017-03-12T01:46:00.643Z,940.6
2017-03-12T01:47:08.678Z,940.6
2017-03-12T01:48:16.767Z,940.6
2017-03-12T01:49:24.854Z,940.5
2017-03-12T01:50:33.027Z,940.6
2017-03-12T01:51:41.604Z,940.6
2017-03-12T01:52:49.114Z,940.6
2017-03-12T01:53:57.201Z,940.5
2017-03-12T01:55:05.292Z,940.5
2017-03-12T01:56:13.577Z,940.6
2017-03-12T01:57:21.525Z,940.6
2017-03-12T01:58:29.552Z,940.5
2017-03-12T01:59:37.642Z,940.5
2017-03-12T02:00:45.733Z,940.4
2017-03-12T02:01:53.813Z,940.5
2017-03-12T02:03:02.407Z,940.4
2017-03-12T02:04:09.986Z,940.4
2017-03-12T02:05:18.073Z,940.4
2017-03-12T02:06:26.325Z,940.4
2017-03-12T02:07:34.290Z,940.4
2017-03-12T02:08:42.392Z,940.4
2017-03-12T02:09:50.421Z,940.4
2017-03-12T02:10:58.511Z,940.3
2017-03-12T02:12:06.598Z,940.3
2017-03-12T02:13:15.185Z,940.3
2017-03-12T02:14:22.825Z,940.3
2017-03-12T02:15:30.863Z,940.3
2017-03-12T02:16:38.943Z,940.3
2017-03-12T02:17:47.087Z,940.4
2017-03-12T02:18:55.122Z,940.4
2017-03-12T02:20:03.259Z,940.3
2017-03-12T02:21:11.293Z,940.3
2017-03-12T02:22:19.560Z,940.3
2017-03-12T02:23:27.486Z,940.3
2017-03-12T02:24:35.576Z,940.3
2017-03-12T02:25:44.164Z,940.2
2017-03-12T02:26:51.753Z,940.3
2017-03-12T02:27:59.838Z,940.2
2017-03-12T02:29:07.977Z,940.2
2017-03-12T02:30:16.014Z,940.2
2017-03-12T02:31:24.157Z,940.2
2017-03-12T02:32:32.350Z,940.2
2017-03-12T02:33:40.414Z,940.2
2017-03-12T02:34:48.378Z,940.2
2017-03-12T02:35:56.464Z,940.1
2017-03-12T02:37:05.052Z,940.1
2017-03-12T02:38:12.635Z,940.2
2017-03-12T02:39:20.722Z,940.1
2017-03-12T02:40:28.801Z,940.1
2017-03-12T02:41:36.889Z,940.1
2017-03-12T02:42:45.037Z,940.1
2017-03-12T02:43:53.267Z,940.1
2017-03-12T02:45:02.039Z,940.1
2017-03-12T02:46:09.244Z,940.1
2017-03-12T02:47:17.335Z,940.0
2017-03-12T02:48:25.476Z,940.1
2017-03-12T02:49:33.510Z,940.0
2017-03-12T02:50:41.601Z,940.0
2017-03-12T02:51:49.678Z,940.0
2017-03-12T02:52:57.778Z,940.0
2017-03-12T02:54:06.091Z,940.0
2017-03-12T02:55:14.132Z,940.0
2017-03-12T02:56:22.036Z,940.0
2017-03-12T02:57:30.117Z,940.0
2017-03-12T02:58:38.212Z,940.0
2017-03-12T02:59:46.805Z,940.0
2017-03-12T03:00:54.443Z,940.0
2017-03-12T03:02:02.479Z,940.0
2017-03-12T03:03:10.570Z,939.9
2017-03-12T03:04:18.652Z,939.9
2017-03-12T03:05:26.833Z,939.9
2017-03-12T03:06:34.836Z,939.9
2017-03-12T03:07:42.916Z,939.9
2017-03-12T03:08:51.006Z,939.9
2017-03-12T03:09:59.099Z,939.9
2017-03-12T03:11:07.690Z,939.9
2017-03-12T03:12:15.278Z,939.9
2017-03-12T03:13:23.363Z,939.9
2017-03-12T03:14:31.450Z,939.8
2017-03-12T03:15:39.531Z,939.8
2017-03-12T03:16:47.731Z,939.8
2017-03-12T03:17:55.708Z,939.8
2017-03-12T03:19:03.825Z,939.9
2017-03-12T03:20:11.882Z,939.8
2017-03-12T03:21:19.970Z,939.8
2017-03-12T03:22:28.565Z,939.8
2017-03-12T03:23:36.156Z,939.8
2017-03-12T03:24:44.229Z,939.8
2017-03-12T03:25:52.325Z,939.8
2017-03-12T03:27:00.428Z,939.8
2017-03-12T03:28:08.542Z,939.8
2017-03-12T03:29:16.580Z,939.8
2017-03-12T03:30:24.659Z,939.8
2017-03-12T03:31:32.842Z,939.8
2017-03-12T03:32:41.413Z,939.8
2017-03-12T03:33:48.991Z,939.7
2017-03-12T03:34:57.028Z,939.7
2017-03-12T03:36:05.111Z,939.7
2017-03-12T03:37:13.196Z,939.7
2017-03-12T03:38:21.285Z,939.7
2017-03-12T03:39:29.428Z,939.7
2017-03-12T03:40:37.459Z,939.7
2017-03-12T03:41:45.547Z,939.6
2017-03-12T03:42:53.763Z,939.6
2017-03-12T03:44:01.716Z,939.6
2017-03-12T03:45:10.308Z,939.6
2017-03-12T03:46:17.893Z,939.6
2017-03-12T03:47:25.986Z,939.6
2017-03-12T03:48:34.117Z,939.5
2017-03-12T03:49:42.148Z,939.5
2017-03-12T03:50:50.291Z,939.5
2017-03-12T03:51:58.317Z,939.5
2017-03-12T03:53:06.583Z,939.5
2017-03-12T03:54:14.669Z,939.5
2017-03-12T03:55:22.590Z,939.5
2017-03-12T03:56:30.732Z,939.5
2017-03-12T03:57:38.767Z,939.5
2017-03-12T03:58:46.853Z,939.4
2017-03-12T03:59:54.937Z,939.5
2017-03-12T04:01:03.023Z,939.4
2017-03-12T04:02:11.623Z,939.5
2017-03-12T04:03:19.192Z,939.5
2017-03-12T04:04:27.489Z,939.5
2017-03-12T04:05:35.367Z,939.5
2017-03-12T04:06:43.454Z,939.5
2017-03-12T04:07:51.598Z,939.5
2017-03-12T04:08:59.635Z,939.5
2017-03-12T04:10:07.721Z,939.5
2017-03-12T04:11:15.814Z,939.5
2017-03-12T04:12:23.899Z,939.5
2017-03-12T04:13:32.048Z,939.5
2017-03-12T04:14:40.264Z,939.5
2017-03-12T04:15:48.338Z,939.5
2017-03-12T04:16:56.248Z,939.5
2017-03-12T04:18:04.341Z,939.5
2017-03-12T04:19:12.477Z,939.5
2017-03-12T04:20:20.574Z,939.5
2017-03-12T04:21:28.605Z,939.5
2017-03-12T04:22:36.694Z,939.5
2017-03-12T04:23:44.776Z,939.5
2017-03-12T04:24:52.929Z,939.5
2017-03-12T04:26:01.098Z,939.5
2017-03-12T04:27:09.039Z,939.5
2017-03-12T04:28:17.129Z,939.5
2017-03-12T04:29:25.214Z,939.4
2017-03-12T04:30:33.799Z,939.5
2017-03-12T04:31:41.380Z,939.4
2017-03-12T04:32:49.470Z,939.5
2017-03-12T04:33:57.563Z,939.5
2017-03-12T04:35:05.646Z,939.5
2017-03-12T04:36:14.308Z,939.4
2017-03-12T04:37:21.823Z,939.4
2017-03-12T04:38:29.914Z,939.4
2017-03-12T04:39:37.999Z,939.4
2017-03-12T04:40:46.093Z,939.4
2017-03-12T04:41:54.411Z,939.5
2017-03-12T04:43:02.264Z,939.4
2017-03-12T04:44:10.355Z,939.5
2017-03-12T04:45:18.441Z,939.5
2017-03-12T04:46:26.530Z,939.5
2017-03-12T04:47:35.116Z,939.4
2017-03-12T04:48:42.701Z,939.4
2017-03-12T04:49:50.787Z,939.4
2017-03-12T04:50:58.869Z,939.4
2017-03-12T04:52:07.117Z,939.4
2017-03-12T04:53:15.178Z,939.4
2017-03-12T04:54:23.133Z,939.4
2017-03-12T04:55:31.219Z,939.4
2017-03-12T04:56:39.315Z,939.4
2017-03-12T04:57:47.401Z,939.4
2017-03-12T04:58:55.544Z,939.4
2017-03-12T05:00:03.573Z,939.4
2017-03-12T05:01:11.660Z,939.4
2017-03-12T05:02:19.741Z,939.4
2017-03-12T05:03:27.850Z,939.4
2017-03-12T05:04:36.419Z,939.4
2017-03-12T05:05:44.000Z,939.4
2017-03-12T05:06:52.084Z,939.4
2017-03-12T05:08:00.233Z,939.4
2017-03-12T05:09:08.262Z,939.4
2017-03-12T05:10:16.404Z,939.4
2017-03-12T05:11:24.427Z,939.4
2017-03-12T05:12:32.523Z,939.4
2017-03-12T05:13:40.779Z,939.4
2017-03-12T05:14:48.884Z,939.4
2017-03-12T05:15:57.286Z,939.4
2017-03-12T05:17:04.865Z,939.4
2017-03-12T05:18:12.948Z,939.5
2017-03-12T05:19:21.032Z,939.5
2017-03-12T05:20:29.173Z,939.5
2017-03-12T05:21:37.265Z,939.5
2017-03-12T05:22:45.289Z,939.5
2017-03-12T05:23:53.894Z,939.5
2017-03-12T05:25:01.471Z,939.4
2017-03-12T05:26:09.561Z,939.4
2017-03-12T05:27:17.701Z,939.4
2017-03-12T05:28:25.736Z,939.4
2017-03-12T05:29:33.820Z,939.4
2017-03-12T05:30:41.901Z,939.4
2017-03-12T05:31:50.056Z,939.4
2017-03-12T05:32:58.136Z,939.4
2017-03-12T05:34:06.167Z,939.5
2017-03-12T05:35:14.252Z,939.5
2017-03-12T05:36:22.537Z,939.5
2017-03-12T05:37:30.423Z,939.5
2017-03-12T05:38:39.013Z,939.5
2017-03-12T05:39:46.658Z,939.5
2017-03-12T05:40:54.687Z,939.5
2017-03-12T05:42:02.771Z,939.5
2017-03-12T05:43:10.857Z,939.5
2017-03-12T05:44:18.999Z,939.5
2017-03-12T05:45:27.031Z,939.5
2017-03-12T05:46:35.113Z,939.5
2017-03-12T05:47:43.210Z,939.5
2017-03-12T05:48:51.288Z,939.5
2017-03-12T05:49:59.874Z,939.5
2017-03-12T05:51:07.463Z,939.5
2017-03-12T05:52:15.579Z,939.5
2017-03-12T05:53:23.657Z,939.5
2017-03-12T05:54:31.720Z,939.5
2017-03-12T05:55:39.866Z,939.5
2017-03-12T05:56:47.892Z,939.5
2017-03-12T05:57:55.982Z,939.5
2017-03-12T05:59:04.071Z,939.4
2017-03-12T06:00:12.161Z,939.4
2017-03-12T06:01:20.754Z,939.4
2017-03-12T06:02:28.333Z,939.5
2017-03-12T06:03:36.447Z,939.4
2017-03-12T06:04:44.518Z,939.5
2017-03-12T06:05:52.604Z,939.5
2017-03-12T06:07:00.748Z,939.5
2017-03-12T06:08:08.821Z,939.4
2017-03-12T06:09:16.873Z,939.5
2017-03-12T06:10:24.954Z,939.5
2017-03-12T06:11:33.555Z,939.5
2017-03-12T06:12:41.189Z,939.4
2017-03-12T06:13:49.215Z,939.4
2017-03-12T06:14:57.304Z,939.4
2017-03-12T06:16:05.690Z,939.4
2017-03-12T06:17:13.476Z,939.4
2017-03-12T06:18:21.918Z,939.4
2017-03-12T06:19:29.657Z,939.4
2017-03-12T06:20:37.742Z,939.4
2017-03-12T06:21:45.880Z,939.4
2017-03-12T06:22:53.911Z,939.4
2017-03-12T06:24:02.841Z,939.4
2017-03-12T06:25:10.108Z,939.4
2017-03-12T06:26:18.164Z,939.5
2017-03-12T06:27:28.159Z,939.4
2017-03-12T06:28:34.338Z,939.4
2017-03-12T06:29:42.481Z,939.4
2017-03-12T06:30:50.515Z,939.4
2017-03-12T06:31:58.599Z,939.4
2017-03-12T06:33:06.686Z,939.4
2017-03-12T06:34:14.769Z,939.4
2017-03-12T06:35:22.913Z,939.4
2017-03-12T06:36:30.946Z,939.4
2017-03-12T06:37:39.032Z,939.5
2017-03-12T06:38:47.214Z,939.5
2017-03-12T06:39:55.702Z,939.4
2017-03-12T06:41:04.550Z,939.4
2017-03-12T06:42:11.383Z,939.4
2017-03-12T06:43:19.972Z,939.4
2017-03-12T06:44:27.557Z,939.4
2017-03-12T06:45:35.640Z,939.4
2017-03-12T06:46:43.802Z,939.4
2017-03-12T06:47:52.067Z,939.4
2017-03-12T06:48:59.903Z,939.5
2017-03-12T06:50:07.994Z,939.5
2017-03-12T06:51:16.077Z,939.5
2017-03-12T06:52:24.219Z,939.5
2017-03-12T06:53:32.248Z,939.6
2017-03-12T06:54:40.748Z,939.5
2017-03-12T06:55:48.630Z,939.6
2017-03-12T06:56:56.507Z,939.5
2017-03-12T06:58:06.543Z,939.5
2017-03-12T06:59:13.234Z,939.6
2017-03-12T07:00:20.792Z,939.5
2017-03-12T07:01:29.429Z,939.5
2017-03-12T07:02:36.980Z,939.5
2017-03-12T07:03:45.125Z,939.5
2017-03-12T07:04:53.152Z,939.5
2017-03-12T07:06:01.252Z,939.5
2017-03-12T07:07:09.331Z,939.5
2017-03-12T07:08:17.726Z,939.5
2017-03-12T07:09:26.009Z,939.5
2017-03-12T07:10:33.659Z,939.5
2017-03-12T07:11:41.688Z,939.5
2017-03-12T07:12:49.788Z,939.5
2017-03-12T07:13:57.864Z,939.5
2017-03-12T07:15:06.455Z,939.5
2017-03-12T07:16:14.031Z,939.6
2017-03-12T07:17:22.119Z,939.6
2017-03-12T07:18:30.213Z,939.6
2017-03-12T07:19:38.302Z,939.6
2017-03-12T07:20:46.443Z,939.6
2017-03-12T07:21:54.476Z,939.6
2017-03-12T07:23:02.559Z,939.5
2017-03-12T07:24:10.709Z,939.5
2017-03-12T07:25:18.729Z,939.6
2017-03-12T07:26:27.327Z,939.6
2017-03-12T07:27:34.906Z,939.5
2017-03-12T07:28:42.992Z,939.5
2017-03-12T07:29:51.079Z,939.6
2017-03-12T07:30:59.229Z,939.5
2017-03-12T07:32:07.760Z,939.5
2017-03-12T07:33:15.341Z,939.5
2017-03-12T07:34:23.591Z,939.5
2017-03-12T07:35:31.695Z,939.5
2017-03-12T07:36:39.603Z,939.5
2017-03-12T07:37:47.745Z,939.5
2017-03-12T07:38:55.787Z,939.5
2017-03-12T07:40:03.872Z,939.6
2017-03-12T07:41:11.957Z,939.6
2017-03-12T07:42:20.050Z,939.5
2017-03-12T07:43:28.137Z,939.5
2017-03-12T07:44:36.220Z,939.5
2017-03-12T07:45:44.314Z,939.5
2017-03-12T07:46:52.461Z,939.6
2017-03-12T07:48:00.552Z,939.5
2017-03-12T07:49:08.584Z,939.5
2017-03-12T07:50:16.674Z,939.5
2017-03-12T07:51:24.757Z,939.5
2017-03-12T07:52:32.841Z,939.5
2017-03-12T07:53:41.441Z,939.6
2017-03-12T07:54:49.020Z,939.5
2017-03-12T07:55:57.226Z,939.5
2017-03-12T07:57:05.195Z,939.5
2017-03-12T07:58:13.283Z,939.5
2017-03-12T07:59:21.430Z,939.5
2017-03-12T08:00:29.453Z,939.5
2017-03-12T08:01:37.540Z,939.5
2017-03-12T08:02:46.230Z,939.5
2017-03-12T08:03:53.708Z,939.5
2017-03-12T08:05:01.857Z,939.5
2017-03-12T08:06:09.886Z,939.5
2017-03-12T08:07:17.968Z,939.5
2017-03-12T08:08:26.057Z,939.5
2017-03-12T08:09:34.148Z,939.5
2017-03-12T08:10:42.749Z,939.5
2017-03-12T08:11:50.319Z,939.5
2017-03-12T08:12:58.505Z,939.5
2017-03-12T08:14:06.499Z,939.5
2017-03-12T08:15:14.587Z,939.5
2017-03-12T08:16:23.179Z,939.5
2017-03-12T08:17:30.770Z,939.5
2017-03-12T08:18:38.995Z,939.5
2017-03-12T08:19:46.942Z,939.5
2017-03-12T08:20:55.036Z,939.5
2017-03-12T08:22:03.184Z,939.5
2017-03-12T08:23:11.230Z,939.5
2017-03-12T08:24:19.331Z,939.5
2017-03-12T08:25:27.421Z,939.5
2017-03-12T08:26:35.508Z,939.5
2017-03-12T08:27:43.650Z,939.5
2017-03-12T08:28:51.809Z,939.5
2017-03-12T08:29:59.774Z,939.5
2017-03-12T08:31:07.858Z,939.5
2017-03-12T08:32:15.946Z,939.5
2017-03-12T08:33:24.545Z,939.5
2017-03-12T08:34:32.189Z,939.5
2017-03-12T08:35:40.218Z,939.5
2017-03-12T08:36:48.304Z,939.5
2017-03-12T08:37:56.390Z,939.4
2017-03-12T08:39:04.532Z,939.5
2017-03-12T08:40:12.640Z,939.5
2017-03-12T08:41:20.733Z,939.5
2017-03-12T08:42:28.752Z,939.5
2017-03-12T08:43:36.838Z,939.5
2017-03-12T08:44:46.434Z,939.5
2017-03-12T08:45:53.013Z,939.5
2017-03-12T08:47:01.102Z,939.5
2017-03-12T08:48:09.185Z,939.4
2017-03-12T08:49:17.278Z,939.5
2017-03-12T08:50:25.711Z,939.5
2017-03-12T08:51:33.452Z,939.4
2017-03-12T08:52:41.985Z,939.4
2017-03-12T08:53:49.625Z,939.4
2017-03-12T08:54:57.712Z,939.4
2017-03-12T08:56:05.854Z,939.4
2017-03-12T08:57:13.887Z,939.4
2017-03-12T08:58:21.972Z,939.4
2017-03-12T08:59:30.058Z,939.4
2017-03-12T09:00:38.146Z,939.3
2017-03-12T09:01:46.822Z,939.4
2017-03-12T09:02:54.321Z,939.4
2017-03-12T09:04:02.411Z,939.4
2017-03-12T09:05:10.501Z,939.4
2017-03-12T09:06:18.637Z,939.4
2017-03-12T09:07:27.181Z,939.4
2017-03-12T09:08:34.768Z,939.4
2017-03-12T09:09:42.851Z,939.4
2017-03-12T09:10:50.958Z,939.4
2017-03-12T09:11:59.109Z,939.4
2017-03-12T09:13:07.251Z,939.4
2017-03-12T09:14:15.197Z,939.4
2017-03-12T09:15:23.285Z,939.4
2017-03-12T09:16:31.387Z,939.4
2017-03-12T09:17:39.473Z,939.4
2017-03-12T09:18:48.070Z,939.4
2017-03-12T09:19:55.656Z,939.4
2017-03-12T09:21:03.741Z,939.3
2017-03-12T09:22:11.884Z,939.4
2017-03-12T09:23:19.910Z,939.4
2017-03-12T09:24:28.057Z,939.4
2017-03-12T09:25:36.087Z,939.3
2017-03-12T09:26:44.171Z,939.3
2017-03-12T09:27:52.429Z,939.3
2017-03-12T09:29:00.354Z,939.3
2017-03-12T09:30:08.494Z,939.3
2017-03-12T09:31:16.523Z,939.3
2017-03-12T09:32:24.636Z,939.3
2017-03-12T09:33:32.719Z,939.3
2017-03-12T09:34:40.780Z,939.3
2017-03-12T09:35:52.379Z,939.2
2017-03-12T09:36:56.988Z,939.2
2017-03-12T09:38:05.106Z,939.2
2017-03-12T09:39:13.272Z,939.2
2017-03-12T09:40:21.228Z,939.2
2017-03-12T09:41:29.383Z,939.2
2017-03-12T09:42:37.413Z,939.2
2017-03-12T09:43:45.502Z,939.2
2017-03-12T09:44:53.591Z,939.1
2017-03-12T09:46:01.676Z,939.1
2017-03-12T09:47:10.266Z,939.2
2017-03-12T09:48:17.851Z,939.1
2017-03-12T09:49:25.944Z,939.2
2017-03-12T09:50:34.027Z,939.2
2017-03-12T09:51:42.119Z,939.1
2017-03-12T09:52:53.714Z,939.1
2017-03-12T09:53:58.529Z,939.1
2017-03-12T09:55:06.535Z,939.1
2017-03-12T09:56:14.466Z,939.1
2017-03-12T09:57:22.554Z,939.1
2017-03-12T09:58:30.690Z,939.0
2017-03-12T09:59:38.730Z,939.1
2017-03-12T10:00:46.817Z,939.0
2017-03-12T10:01:54.905Z,939.1
2017-03-12T10:03:02.993Z,939.0
2017-03-12T10:04:11.587Z,939.1
2017-03-12T10:05:19.345Z,939.0
2017-03-12T10:06:27.248Z,939.0
2017-03-12T10:07:35.343Z,939.0
2017-03-12T10:08:43.429Z,939.0
2017-03-12T10:09:51.639Z,939.0
2017-03-12T10:10:59.649Z,939.0
2017-03-12T10:12:07.711Z,939.0
2017-03-12T10:13:15.795Z,939.0
2017-03-12T10:14:23.875Z,939.0
2017-03-12T10:15:32.628Z,939.0
2017-03-12T10:16:40.191Z,939.0
2017-03-12T10:17:48.141Z,939.0
2017-03-12T10:18:56.229Z,939.0
2017-03-12T10:20:04.317Z,939.0
2017-03-12T10:21:12.457Z,939.0
2017-03-12T10:22:20.499Z,939.0
2017-03-12T10:23:28.576Z,939.0
2017-03-12T10:24:36.662Z,939.0
2017-03-12T10:25:45.250Z,938.9
2017-03-12T10:26:53.079Z,938.9
2017-03-12T10:28:00.924Z,938.9
2017-03-12T10:29:09.005Z,938.9
2017-03-12T10:30:17.095Z,939.0
2017-03-12T10:31:25.181Z,938.9
2017-03-12T10:32:33.790Z,939.0
2017-03-12T10:33:41.378Z,938.9
2017-03-12T10:34:49.440Z,938.9
2017-03-12T10:35:57.528Z,938.9
2017-03-12T10:37:05.611Z,938.9
2017-03-12T10:38:13.747Z,938.9
2017-03-12T10:39:21.781Z,938.9
2017-03-12T10:40:29.868Z,938.9
2017-03-12T10:41:38.455Z,938.9
2017-03-12T10:42:46.040Z,938.9
2017-03-12T10:43:54.232Z,938.9
2017-03-12T10:45:02.233Z,938.9
2017-03-12T10:46:10.301Z,938.9
2017-03-12T10:47:18.390Z,938.8
2017-03-12T10:48:26.657Z,938.8
2017-03-12T10:49:35.070Z,938.8
2017-03-12T10:50:42.661Z,938.8
2017-03-12T10:51:50.742Z,938.8
2017-03-12T10:52:58.825Z,938.8
2017-03-12T10:54:06.912Z,938.8
2017-03-12T10:55:15.060Z,938.8
2017-03-12T10:56:23.088Z,938.8
2017-03-12T10:57:31.673Z,938.8
2017-03-12T10:58:39.276Z,938.7
2017-03-12T10:59:47.446Z,938.7
2017-03-12T11:00:55.486Z,938.7
2017-03-12T11:02:03.513Z,938.7
2017-03-12T11:03:11.605Z,938.7
2017-03-12T11:04:19.683Z,938.7
2017-03-12T11:05:27.766Z,938.7
2017-03-12T11:06:36.361Z,938.7
2017-03-12T11:07:43.938Z,938.7
2017-03-12T11:08:52.024Z,938.7
2017-03-12T11:10:00.550Z,938.7
2017-03-12T11:11:08.198Z,938.7
2017-03-12T11:12:16.790Z,938.7
2017-03-12T11:13:24.422Z,938.7
2017-03-12T11:14:32.458Z,938.7
2017-03-12T11:15:40.594Z,938.7
2017-03-12T11:16:48.626Z,938.7
2017-03-12T11:17:57.222Z,938.7
2017-03-12T11:19:04.804Z,938.7
2017-03-12T11:20:12.888Z,938.7
2017-03-12T11:21:21.062Z,938.6
2017-03-12T11:22:29.065Z,938.7
2017-03-12T11:23:37.209Z,938.6
2017-03-12T11:24:45.243Z,938.6
2017-03-12T11:25:53.326Z,938.6
2017-03-12T11:27:01.410Z,938.6
2017-03-12T11:28:09.496Z,938.6
2017-03-12T11:29:18.086Z,938.6
2017-03-12T11:30:25.674Z,938.6
2017-03-12T11:31:33.784Z,938.6
2017-03-12T11:32:41.856Z,938.6
2017-03-12T11:33:49.928Z,938.6
2017-03-12T11:34:58.070Z,938.6
2017-03-12T11:36:06.099Z,938.6
2017-03-12T11:37:14.182Z,938.6
2017-03-12T11:38:22.275Z,938.6
2017-03-12T11:39:30.354Z,938.5
2017-03-12T11:40:38.491Z,938.5
2017-03-12T11:41:46.527Z,938.5
2017-03-12T11:42:54.739Z,938.5
2017-03-12T11:44:02.692Z,938.5
2017-03-12T11:45:11.284Z,938.6
2017-03-12T11:46:18.924Z,938.5
2017-03-12T11:47:26.956Z,938.5
2017-03-12T11:48:35.047Z,938.6
2017-03-12T11:49:43.123Z,938.5
2017-03-12T11:50:51.245Z,938.5
2017-03-12T11:51:59.811Z,938.5
2017-03-12T11:53:07.499Z,938.5
2017-03-12T11:54:15.573Z,938.5
2017-03-12T11:55:23.583Z,938.5
2017-03-12T11:56:31.665Z,938.5
2017-03-12T11:57:39.812Z,938.5
2017-03-12T11:58:47.843Z,938.4
2017-03-12T11:59:55.928Z,938.4
2017-03-12T12:01:04.515Z,938.4
2017-03-12T12:02:12.099Z,938.4
2017-03-12T12:03:20.245Z,938.3
2017-03-12T12:04:28.282Z,938.3
2017-03-12T12:05:36.360Z,938.3
2017-03-12T12:06:44.445Z,938.3
2017-03-12T12:07:52.524Z,938.3
2017-03-12T12:09:00.866Z,938.3
2017-03-12T12:10:08.700Z,938.3
2017-03-12T12:11:16.789Z,938.3
2017-03-12T12:12:24.888Z,938.3
2017-03-12T12:13:32.971Z,938.2
2017-03-12T12:14:41.137Z,938.2
2017-03-12T12:15:49.247Z,938.2
2017-03-12T12:16:57.591Z,938.2
2017-03-12T12:18:05.317Z,938.2
2017-03-12T12:19:13.556Z,938.1
2017-03-12T12:20:21.684Z,938.1
2017-03-12T12:21:29.575Z,938.1
2017-03-12T12:22:37.660Z,938.1
2017-03-12T12:23:45.745Z,938.1
2017-03-12T12:24:53.830Z,938.1
2017-03-12T12:26:02.437Z,938.1
2017-03-12T12:27:10.006Z,938.0
2017-03-12T12:28:18.087Z,938.0
2017-03-12T12:29:26.177Z,938.0
2017-03-12T12:30:34.388Z,938.0
2017-03-12T12:31:42.403Z,938.0
2017-03-12T12:32:50.941Z,938.0
2017-03-12T12:33:58.525Z,938.0
2017-03-12T12:35:06.616Z,938.0
2017-03-12T12:36:14.698Z,938.0
2017-03-12T12:37:22.848Z,938.0
2017-03-12T12:38:30.879Z,938.0
2017-03-12T12:39:38.960Z,937.9
2017-03-12T12:40:47.045Z,937.9
2017-03-12T12:41:55.283Z,937.9
2017-03-12T12:43:03.716Z,937.9
2017-03-12T12:44:11.296Z,937.9
2017-03-12T12:45:19.393Z,937.9
2017-03-12T12:46:27.481Z,937.9
2017-03-12T12:47:35.616Z,937.9
2017-03-12T12:48:43.705Z,937.9
2017-03-12T12:49:51.739Z,937.9
2017-03-12T12:50:59.827Z,937.8
2017-03-12T12:52:07.904Z,937.8
2017-03-12T12:53:15.999Z,937.9
2017-03-12T12:54:24.587Z,937.8
2017-03-12T12:55:32.167Z,937.8
2017-03-12T12:56:40.259Z,937.8
2017-03-12T12:57:48.343Z,937.8
2017-03-12T12:58:56.503Z,937.8
2017-03-12T13:00:04.568Z,937.8
2017-03-12T13:01:12.598Z,937.7
2017-03-12T13:02:20.689Z,937.8
2017-03-12T13:03:28.775Z,937.8
2017-03-12T13:04:36.927Z,937.8
2017-03-12T13:05:45.008Z,937.8
2017-03-12T13:06:53.034Z,937.8
2017-03-12T13:08:01.118Z,937.7
2017-03-12T13:09:09.264Z,937.7
2017-03-12T13:10:17.292Z,937.7
2017-03-12T13:11:25.877Z,937.7
2017-03-12T13:12:33.466Z,937.7
2017-03-12T13:13:41.755Z,937.7
2017-03-12T13:14:49.822Z,937.7
2017-03-12T13:15:57.718Z,937.7
2017-03-12T13:17:06.317Z,937.8
2017-03-12T13:18:13.895Z,937.7
2017-03-12T13:19:21.983Z,937.7
2017-03-12T13:20:30.131Z,937.7
2017-03-12T13:21:38.171Z,937.8
2017-03-12T13:22:49.761Z,937.7
2017-03-12T13:23:54.346Z,937.7
2017-03-12T13:25:02.552Z,937.7
2017-03-12T13:26:10.527Z,937.7
2017-03-12T13:27:18.615Z,937.7
2017-03-12T13:28:26.765Z,937.6
2017-03-12T13:29:34.795Z,937.6
2017-03-12T13:30:42.881Z,937.7
2017-03-12T13:31:50.988Z,937.7
2017-03-12T13:32:59.064Z,937.7
2017-03-12T13:34:07.654Z,937.7
2017-03-12T13:35:15.341Z,937.7
2017-03-12T13:36:23.379Z,937.6
2017-03-12T13:37:31.402Z,937.6
2017-03-12T13:38:39.485Z,937.6
2017-03-12T13:39:47.629Z,937.7
2017-03-12T13:40:55.658Z,937.7
2017-03-12T13:42:03.738Z,937.7
2017-03-12T13:43:11.826Z,937.6
2017-03-12T13:44:19.919Z,937.6
2017-03-12T13:45:28.063Z,937.6
2017-03-12T13:46:36.170Z,937.6
2017-03-12T13:47:44.178Z,937.6
2017-03-12T13:48:52.264Z,937.6
2017-03-12T13:50:00.346Z,937.6
2017-03-12T13:51:08.937Z,937.5
2017-03-12T13:52:16.577Z,937.5
2017-03-12T13:53:24.601Z,937.6
2017-03-12T13:54:32.690Z,937.5
2017-03-12T13:55:40.780Z,937.5
2017-03-12T13:56:49.373Z,937.5
2017-03-12T13:57:57.138Z,937.6
2017-03-12T13:59:05.046Z,937.6
2017-03-12T14:00:13.134Z,937.6
2017-03-12T14:01:21.368Z,937.6
2017-03-12T14:02:29.812Z,937.5
2017-03-12T14:03:37.393Z,937.5
2017-03-12T14:04:45.483Z,937.5
2017-03-12T14:05:53.559Z,937.5
2017-03-12T14:07:01.651Z,937.5
2017-03-12T14:08:09.789Z,937.5
2017-03-12T14:09:17.820Z,937.5
2017-03-12T14:10:25.901Z,937.5
2017-03-12T14:11:33.996Z,937.4
2017-03-12T14:12:42.081Z,937.4
2017-03-12T14:13:50.228Z,937.4
2017-03-12T14:14:58.260Z,937.4
2017-03-12T14:16:06.352Z,937.4
2017-03-12T14:17:14.432Z,937.4
2017-03-12T14:18:22.613Z,937.4
2017-03-12T14:19:30.746Z,937.4
2017-03-12T14:20:38.692Z,937.5
2017-03-12T14:21:46.778Z,937.5
2017-03-12T14:22:54.869Z,937.5
2017-03-12T14:24:03.012Z,937.4
2017-03-12T14:25:11.105Z,937.5
2017-03-12T14:26:19.129Z,937.5
2017-03-12T14:27:27.221Z,937.4
2017-03-12T14:28:35.314Z,937.4
2017-03-12T14:29:43.442Z,937.4
2017-03-12T14:30:51.541Z,937.4
2017-03-12T14:31:59.568Z,937.4
2017-03-12T14:33:07.655Z,937.3
2017-03-12T14:34:15.840Z,937.3
2017-03-12T14:35:23.912Z,937.4
2017-03-12T14:36:31.976Z,937.3